Time;durP1;ratioP1;P1;durP2;ratioP2;P2;SDS_P1;SDS_P2;PMS_P1;PMS_P2;Temp;Humidity;BMP_temperature;BMP_pressure;BME280_temperature;BME280_humidity;BME280_pressure;Samples;Min_cycle;Max_cycle;Signal;HPM_P1;HPM_P2
2022/01/03 00:00:39;;;;;;;27.08;4.43;;;;;;;9.60;100.00;101007.16;5064510;28;20047;-71
2022/01/03 00:03:08;;;;;;;28.45;5.20;;;;;;;9.61;100.00;101001.41;5063582;28;20115;-70
2022/01/03 00:05:34;;;;;;;24.85;4.82;;;;;;;9.57;100.00;101006.63;5050434;28;20029;-70
2022/01/03 00:08:00;;;;;;;26.73;4.32;;;;;;;9.57;100.00;101003.88;5062283;28;20039;-70
2022/01/03 00:10:26;;;;;;;28.40;4.72;;;;;;;9.74;100.00;101005.53;5059116;28;20464;-70
2022/01/03 00:12:51;;;;;;;30.25;4.65;;;;;;;9.56;100.00;101015.91;5065176;28;21347;-70
2022/01/03 00:15:18;;;;;;;26.20;4.63;;;;;;;9.60;100.00;101013.44;5046889;28;20579;-70
2022/01/03 00:17:45;;;;;;;28.40;4.75;;;;;;;9.54;100.00;101009.03;5064663;28;20021;-69
2022/01/03 00:20:12;;;;;;;33.95;5.05;;;;;;;9.72;100.00;101015.91;5045576;28;20508;-69
2022/01/03 00:23:00;;;;;;;27.95;4.90;;;;;;;9.42;100.00;101011.22;5064987;28;20127;-69
2022/01/03 00:25:26;;;;;;;30.75;4.70;;;;;;;9.57;100.00;101003.88;5044051;28;20372;-69
2022/01/03 00:28:04;;;;;;;28.63;4.50;;;;;;;9.63;100.00;101015.66;5043797;28;20090;-69
2022/01/03 00:30:33;;;;;;;32.35;5.15;;;;;;;9.59;100.00;101019.19;5055190;28;20028;-69
2022/01/03 00:33:01;;;;;;;30.23;4.75;;;;;;;9.69;100.00;101035.63;5049856;28;20021;-70
2022/01/03 00:35:28;;;;;;;25.80;5.22;;;;;;;9.53;100.00;101032.06;5046730;28;20028;-70
2022/01/03 00:37:57;;;;;;;32.50;5.10;;;;;;;9.53;100.00;101016.44;5063137;28;20024;-70
2022/01/03 00:40:22;;;;;;;25.73;4.13;;;;;;;9.54;100.00;101034.53;5045984;28;20217;-70
2022/01/03 00:42:49;;;;;;;28.42;5.03;;;;;;;9.52;100.00;101031.22;5033001;28;20059;-70
2022/01/03 00:45:14;;;;;;;26.40;5.63;;;;;;;9.64;100.00;101024.66;5061902;28;20170;-70
2022/01/03 00:47:40;;;;;;;36.53;5.13;;;;;;;9.44;100.00;101012.59;5064092;28;20247;-70
2022/01/03 00:50:12;;;;;;;27.67;4.90;;;;;;;9.60;100.00;101026.31;5063401;28;20052;-70
2022/01/03 00:52:37;;;;;;;32.73;5.43;;;;;;;9.59;100.00;101024.66;5065609;28;20024;-70
2022/01/03 00:55:05;;;;;;;30.17;4.50;;;;;;;9.41;100.00;101035.00;5024704;28;20265;-70
2022/01/03 00:57:38;;;;;;;25.70;4.53;;;;;;;9.60;100.00;101031.78;5060636;28;20078;-70
2022/01/03 01:00:09;;;;;;;23.80;4.10;;;;;;;9.54;100.00;101039.16;5060877;28;20031;-69
2022/01/03 01:02:36;;;;;;;32.90;5.93;;;;;;;9.60;100.00;101026.31;5043117;28;20029;-70
2022/01/03 01:05:04;;;;;;;28.05;5.47;;;;;;;9.57;100.00;101027.66;5049358;28;20585;-69
2022/01/03 01:07:31;;;;;;;21.38;3.88;;;;;;;9.58;100.00;101034.78;5047219;28;20044;-70
2022/01/03 01:10:00;;;;;;;31.67;4.15;;;;;;;9.58;100.00;101034.78;5059347;28;20028;-70
2022/01/03 01:12:29;;;;;;;26.98;5.25;;;;;;;9.63;100.00;101036.72;5058630;28;20024;-69
2022/01/03 01:14:55;;;;;;;26.40;4.20;;;;;;;9.59;100.00;101027.41;5067541;28;20040;-70
2022/01/03 01:17:22;;;;;;;19.73;4.57;;;;;;;9.42;100.00;101033.13;5061883;28;20029;-70
2022/01/03 01:19:48;;;;;;;26.42;4.97;;;;;;;9.55;100.00;101038.88;5063600;28;20024;-69
2022/01/03 01:22:14;;;;;;;31.17;4.57;;;;;;;9.52;100.00;101036.69;5061336;28;20039;-69
2022/01/03 01:24:58;;;;;;;33.08;5.93;;;;;;;9.47;100.00;101028.47;5059999;28;20036;-69
2022/01/03 01:30:10;;;;;;;22.88;4.35;;;;;;;9.51;100.00;101029.59;5025817;28;20032;-68
2022/01/03 01:32:42;;;;;;;28.05;5.80;;;;;;;9.54;100.00;101034.53;5046924;28;20021;-69
2022/01/03 01:35:09;;;;;;;26.95;4.97;;;;;;;9.73;100.00;101034.81;5061295;28;20020;-69
2022/01/03 01:37:38;;;;;;;25.65;3.97;;;;;;;9.44;100.00;101033.66;5063436;28;20154;-70
2022/01/03 01:40:04;;;;;;;28.98;4.57;;;;;;;9.59;100.00;101033.69;5060684;28;20329;-70
2022/01/03 01:42:31;;;;;;;26.65;4.75;;;;;;;9.46;100.00;101037.78;5062353;28;20045;-70
2022/01/03 01:45:00;;;;;;;30.60;6.32;;;;;;;9.59;100.00;101028.22;5068842;28;20078;-68
2022/01/03 01:47:26;;;;;;;31.50;4.22;;;;;;;9.64;100.00;101027.41;5064101;28;20457;-70
2022/01/03 01:49:53;;;;;;;30.90;5.05;;;;;;;9.55;100.00;101040.81;5062986;28;20059;-70
2022/01/03 01:52:23;;;;;;;23.92;4.90;;;;;;;9.47;100.00;101033.94;5028326;28;20498;-69
2022/01/03 01:55:01;;;;;;;28.60;4.72;;;;;;;9.49;100.00;101037.22;5061093;28;20040;-69
2022/01/03 01:58:05;;;;;;;27.35;5.28;;;;;;;9.48;100.00;101027.38;5061193;28;20401;-69
2022/01/03 02:00:33;;;;;;;37.28;5.85;;;;;;;9.49;100.00;101037.22;5061411;28;20749;-69
2022/01/03 02:03:13;;;;;;;25.85;4.70;;;;;;;9.54;100.00;101045.47;5063536;28;20043;-70
2022/01/03 02:06:07;;;;;;;31.52;5.07;;;;;;;9.49;100.00;101028.19;5045382;28;20483;-68
2022/01/03 02:08:39;;;;;;;29.17;5.03;;;;;;;9.64;100.00;101043.81;5041028;28;20036;-69
2022/01/03 02:11:31;;;;;;;32.03;5.32;;;;;;;9.56;100.00;101042.47;5039822;28;20033;-69
2022/01/03 02:13:59;;;;;;;36.72;4.82;;;;;;;9.64;100.00;101043.81;5041960;28;20012;-70
2022/01/03 02:16:25;;;;;;;25.38;4.65;;;;;;;9.69;100.00;101043.84;5042079;28;20407;-70
2022/01/03 02:18:50;;;;;;;29.48;4.65;;;;;;;9.61;100.00;101045.22;5061484;28;20055;-70
2022/01/03 02:21:18;;;;;;;31.63;6.15;;;;;;;9.56;100.00;101047.94;5060941;28;20028;-69
2022/01/03 02:23:44;;;;;;;36.28;6.30;;;;;;;9.53;100.00;101049.28;5060551;28;20032;-70
2022/01/03 02:26:12;;;;;;;27.75;4.82;;;;;;;9.66;100.00;101039.75;5062293;28;20031;-70
2022/01/03 02:28:37;;;;;;;35.40;6.15;;;;;;;9.63;100.00;101045.75;5061578;28;20095;-70
2022/01/03 02:31:03;;;;;;;30.10;4.90;;;;;;;9.51;100.00;101046.00;5060531;28;20403;-69
2022/01/03 02:33:28;;;;;;;31.13;5.03;;;;;;;9.65;100.00;101050.97;5043591;28;20044;-69
2022/01/03 02:35:53;;;;;;;38.05;6.75;;;;;;;9.63;100.00;101045.75;5061804;28;20623;-70
2022/01/03 02:38:19;;;;;;;42.97;6.05;;;;;;;9.73;100.00;101039.47;5061247;28;20032;-69
2022/01/03 02:40:44;;;;;;;35.60;5.75;;;;;;;9.44;100.00;101039.94;5045517;28;20031;-69
2022/01/03 02:43:10;;;;;;;37.83;6.03;;;;;;;9.61;100.00;101055.31;5047133;28;20249;-69
2022/01/03 02:45:38;;;;;;;35.58;6.63;;;;;;;9.62;100.00;101059.72;5027525;28;20479;-69
2022/01/03 02:48:07;;;;;;;35.78;5.20;;;;;;;9.57;100.00;101057.78;5029631;28;20247;-70
2022/01/03 02:50:34;;;;;;;36.47;5.47;;;;;;;9.53;100.00;101038.34;5043626;28;20110;-70
2022/01/03 02:53:00;;;;;;;35.85;6.32;;;;;;;9.53;100.00;101024.66;5047416;28;20531;-69
2022/01/03 02:55:28;;;;;;;33.58;5.72;;;;;;;9.45;100.00;101035.31;5041328;28;20059;-69
2022/01/03 02:57:58;;;;;;;32.80;5.55;;;;;;;9.52;100.00;101033.94;5047981;28;20048;-70
2022/01/03 03:00:29;;;;;;;41.22;7.03;;;;;;;9.57;100.00;101049.56;5043871;28;20060;-69
2022/01/03 03:02:55;;;;;;;33.30;6.10;;;;;;;9.45;100.00;101044.34;5047590;28;20483;-69
2022/01/03 03:05:21;;;;;;;34.22;5.93;;;;;;;9.53;100.00;101046.56;5043825;28;20033;-69
2022/01/03 03:07:47;;;;;;;32.35;5.20;;;;;;;9.49;100.00;101048.16;5046490;28;20043;-69
2022/01/03 03:10:19;;;;;;;28.92;5.53;;;;;;;9.57;100.00;101053.16;5040707;28;20119;-69
2022/01/03 03:12:45;;;;;;;36.63;5.80;;;;;;;9.57;100.00;101044.94;5046400;28;20033;-70
2022/01/03 03:15:13;;;;;;;43.53;6.50;;;;;;;9.59;100.00;101050.09;5047323;28;20037;-69
2022/01/03 03:17:40;;;;;;;34.72;6.80;;;;;;;9.50;100.00;101027.13;5064626;28;20044;-68
2022/01/03 03:20:11;;;;;;;33.28;6.05;;;;;;;9.51;100.00;101043.28;5066305;28;20078;-69
2022/01/03 03:22:38;;;;;;;38.13;6.90;;;;;;;9.55;100.00;101030.69;5066111;28;20522;-68
2022/01/03 03:25:11;;;;;;;34.10;5.43;;;;;;;9.37;100.00;101039.41;5063216;28;20070;-69
2022/01/03 03:27:46;;;;;;;31.33;5.63;;;;;;;9.70;100.00;101040.00;5068230;28;20514;-70
2022/01/03 03:30:24;;;;;;;38.42;5.97;;;;;;;9.53;100.00;101041.06;5066174;28;20119;-69
2022/01/03 03:32:53;;;;;;;41.17;7.30;;;;;;;9.48;100.00;101019.19;5066366;28;20049;-69
2022/01/03 03:35:19;;;;;;;37.15;7.07;;;;;;;9.59;100.00;101022.75;5064437;28;20021;-69
2022/01/03 03:37:45;;;;;;;39.13;5.60;;;;;;;9.63;100.00;101021.13;5066344;28;20024;-69
2022/01/03 03:40:11;;;;;;;39.20;7.05;;;;;;;9.44;100.00;101026.25;5064078;28;20323;-70
2022/01/03 03:42:38;;;;;;;39.53;6.28;;;;;;;9.57;100.00;101031.25;5043563;28;20316;-69
2022/01/03 03:45:06;;;;;;;38.70;6.18;;;;;;;9.54;100.00;101018.09;5045757;28;20044;-70
2022/01/03 03:47:32;;;;;;;41.08;5.72;;;;;;;9.44;100.00;101023.53;5035017;28;20801;-69
2022/01/03 03:49:57;;;;;;;35.63;6.25;;;;;;;9.63;100.00;101020.31;5066229;28;20062;-70
2022/01/03 03:52:23;;;;;;;42.28;6.07;;;;;;;9.51;100.00;101004.97;5046981;28;20174;-69
2022/01/03 03:54:48;;;;;;;41.45;6.57;;;;;;;9.46;100.00;100999.47;5063058;28;20064;-69
2022/01/03 03:57:14;;;;;;;38.90;6.35;;;;;;;9.62;100.00;101019.47;5063047;28;20458;-68
2022/01/03 03:59:40;;;;;;;41.58;6.28;;;;;;;9.64;100.00;101010.97;5026543;28;20043;-69
2022/01/03 04:02:06;;;;;;;43.70;7.40;;;;;;;9.55;100.00;101003.31;5045111;28;20405;-68
2022/01/03 04:04:32;;;;;;;34.80;6.40;;;;;;;9.53;100.00;101007.44;5044821;28;20028;-68
2022/01/03 04:06:57;;;;;;;44.55;5.95;;;;;;;9.55;100.00;101006.03;5045680;28;20028;-70
2022/01/03 04:09:23;;;;;;;44.13;7.13;;;;;;;9.64;100.00;101009.09;5041001;28;20395;-70
2022/01/03 04:11:49;;;;;;;34.13;6.38;;;;;;;9.45;100.00;101007.97;5025350;28;20037;-69
2022/01/03 04:14:14;;;;;;;43.75;6.53;;;;;;;9.54;100.00;100998.09;5043387;28;20159;-69
2022/01/03 04:16:40;;;;;;;42.38;6.72;;;;;;;9.47;100.00;101005.75;5044302;28;20457;-70
2022/01/03 04:19:06;;;;;;;41.35;6.05;;;;;;;9.58;100.00;101010.16;5045309;28;20765;-69
2022/01/03 04:21:32;;;;;;;41.13;6.43;;;;;;;9.46;100.00;100996.75;5042468;28;20135;-69
2022/01/03 04:23:57;;;;;;;45.10;6.75;;;;;;;9.48;100.00;100991.81;5041939;28;20040;-69
2022/01/03 04:26:23;;;;;;;36.05;6.78;;;;;;;9.53;100.00;101007.44;5043533;28;20561;-69
2022/01/03 04:28:49;;;;;;;32.45;5.65;;;;;;;9.41;100.00;100996.69;5026777;28;20386;-68
2022/01/03 04:31:15;;;;;;;36.00;6.70;;;;;;;9.46;100.00;100987.69;5043596;28;20487;-68
2022/01/03 04:33:41;;;;;;;47.03;7.93;;;;;;;9.43;100.00;100990.97;5025267;28;20405;-68
2022/01/03 04:36:08;;;;;;;44.97;7.75;;;;;;;9.57;100.00;100995.66;5045710;28;20554;-69
2022/01/03 04:38:34;;;;;;;48.33;6.43;;;;;;;9.51;100.00;100991.28;5024552;28;20024;-69
2022/01/03 04:41:00;;;;;;;52.67;7.70;;;;;;;9.65;100.00;100988.00;5048822;28;20028;-69
2022/01/03 04:43:26;;;;;;;39.78;6.72;;;;;;;9.52;100.00;100986.59;5064415;28;20177;-69
2022/01/03 04:45:51;;;;;;;41.25;6.45;;;;;;;9.56;100.00;100983.06;5042200;28;20303;-70
2022/01/03 04:48:17;;;;;;;37.95;5.80;;;;;;;9.67;100.00;100980.31;5046488;28;20500;-69
2022/01/03 04:50:42;;;;;;;46.75;6.57;;;;;;;9.61;100.00;100976.78;5043654;28;20423;-69
2022/01/03 04:53:08;;;;;;;48.20;7.57;;;;;;;9.56;100.00;100995.94;5045914;28;20141;-69
2022/01/03 04:55:33;;;;;;;48.33;7.18;;;;;;;9.65;100.00;100979.78;5040857;28;20373;-67
2022/01/03 04:57:59;;;;;;;39.15;5.93;;;;;;;9.68;100.00;100973.78;5044092;28;20443;-68
2022/01/03 05:00:25;;;;;;;39.88;6.82;;;;;;;9.69;100.00;100978.97;5043223;28;20495;-69
2022/01/03 05:02:51;;;;;;;43.67;7.57;;;;;;;9.56;100.00;100979.50;5027561;28;20369;-68
2022/01/03 05:05:16;;;;;;;34.55;6.60;;;;;;;9.64;100.00;100970.75;5044201;28;20395;-68
2022/01/03 05:07:42;;;;;;;36.85;5.95;;;;;;;9.65;100.00;100986.06;5022696;28;20415;-69
2022/01/03 05:10:09;;;;;;;40.47;7.03;;;;;;;9.66;100.00;100978.69;5042621;28;20383;-68
2022/01/03 05:12:35;;;;;;;41.17;6.53;;;;;;;9.75;100.00;100988.00;5060528;28;20024;-69
2022/01/03 05:15:01;;;;;;;35.47;5.90;;;;;;;9.79;100.00;100989.09;5047688;28;20102;-69
2022/01/03 05:17:29;;;;;;;38.40;6.82;;;;;;;9.78;100.00;100986.66;5065535;28;20459;-68
2022/01/03 05:19:55;;;;;;;32.80;6.10;;;;;;;9.66;100.00;100970.50;5064333;28;20037;-69
2022/01/03 05:22:20;;;;;;;36.28;6.25;;;;;;;9.81;100.00;100966.94;5065002;28;20082;-69
2022/01/03 05:24:46;;;;;;;37.67;6.55;;;;;;;9.79;100.00;100977.31;5044936;28;20043;-69
2022/01/03 05:27:12;;;;;;;43.33;6.82;;;;;;;9.63;100.00;100977.31;5060579;28;20028;-69
2022/01/03 05:29:37;;;;;;;38.55;7.47;;;;;;;9.82;100.00;100974.03;5042946;28;20383;-68
2022/01/03 05:32:04;;;;;;;34.67;6.57;;;;;;;9.76;100.00;100970.50;5042262;28;20120;-69
2022/01/03 05:34:30;;;;;;;34.67;6.32;;;;;;;9.90;100.00;100977.06;5042133;28;20119;-69
2022/01/03 05:36:55;;;;;;;38.17;6.15;;;;;;;9.81;100.00;100975.16;5023261;28;20028;-69
2022/01/03 05:39:21;;;;;;;48.13;6.75;;;;;;;9.76;100.00;100970.50;5041384;28;20483;-69
2022/01/03 05:41:46;;;;;;;45.03;8.25;;;;;;;9.81;100.00;100955.97;5038827;28;20032;-69
2022/01/03 05:44:12;;;;;;;38.50;6.25;;;;;;;9.80;100.00;100946.91;5025609;28;20029;-70
2022/01/03 05:46:37;;;;;;;33.88;7.13;;;;;;;9.92;100.00;100958.44;5039691;28;20473;-70
2022/01/03 05:49:03;;;;;;;31.27;5.47;;;;;;;9.81;100.00;100962.25;5045509;28;20452;-71
2022/01/03 05:51:29;;;;;;;36.42;6.30;;;;;;;9.80;100.00;100960.63;5046124;28;20391;-70
2022/01/03 05:53:55;;;;;;;32.38;5.80;;;;;;;9.69;100.00;100959.81;5043587;28;20031;-70
2022/01/03 05:56:22;;;;;;;34.88;5.53;;;;;;;9.73;100.00;100955.41;5059046;28;20427;-70
2022/01/03 05:58:47;;;;;;;26.67;5.07;;;;;;;9.76;100.00;100959.53;5060421;28;20502;-70
2022/01/03 06:01:12;;;;;;;35.63;6.30;;;;;;;9.88;100.00;100951.03;5046879;28;20037;-70
2022/01/03 06:03:39;;;;;;;39.70;6.75;;;;;;;9.84;100.00;100947.19;5030527;28;20027;-70
2022/01/03 06:08:36;;;;;;;35.35;5.18;;;;;;;9.77;100.00;100943.91;5058513;28;20075;-71
2022/01/03 06:11:01;;;;;;;37.13;5.35;;;;;;;9.73;100.00;100962.81;5060298;28;20122;-70
2022/01/03 06:13:27;;;;;;;37.55;6.07;;;;;;;9.74;100.00;100942.56;5061108;28;20242;-69
2022/01/03 06:15:52;;;;;;;28.00;5.43;;;;;;;9.90;100.00;100954.31;5046460;28;20856;-68
2022/01/03 06:18:18;;;;;;;34.60;6.07;;;;;;;9.96;100.00;100952.41;5045489;28;20627;-68
2022/01/03 06:20:46;;;;;;;35.17;6.20;;;;;;;9.77;100.00;100938.44;5043806;28;20028;-69
2022/01/03 06:23:13;;;;;;;34.25;6.35;;;;;;;9.82;100.00;100949.38;5030100;28;20040;-68
2022/01/03 06:25:39;;;;;;;35.72;5.50;;;;;;;9.81;100.00;100945.84;5039220;28;20537;-68
2022/01/03 06:28:07;;;;;;;33.30;6.22;;;;;;;9.88;100.00;100940.09;5046649;28;20049;-68
2022/01/03 06:30:37;;;;;;;31.90;5.47;;;;;;;9.91;100.00;100943.09;5046264;28;20715;-68
2022/01/03 06:33:03;;;;;;;30.88;6.07;;;;;;;9.87;100.00;100944.75;5066716;28;20471;-69
2022/01/03 06:35:29;;;;;;;37.28;5.93;;;;;;;9.91;100.00;100943.09;5066668;28;20252;-69
2022/01/03 06:37:55;;;;;;;34.70;5.97;;;;;;;10.08;100.00;100941.97;5064950;28;20613;-70
2022/01/03 06:40:21;;;;;;;47.22;7.22;;;;;;;9.84;100.00;100942.56;5061300;28;20294;-69
2022/01/03 06:42:46;;;;;;;38.10;6.32;;;;;;;9.76;100.00;100945.84;5066587;28;20504;-68
2022/01/03 06:45:12;;;;;;;27.48;5.18;;;;;;;9.90;100.00;100948.84;5046285;28;20036;-68
2022/01/03 06:47:38;;;;;;;38.17;5.93;;;;;;;9.78;100.00;100948.31;5065449;28;20062;-70
2022/01/03 06:50:04;;;;;;;37.85;5.93;;;;;;;9.85;100.00;100941.44;5064254;28;20583;-70
2022/01/03 06:52:30;;;;;;;35.75;6.25;;;;;;;9.97;100.00;100946.66;5064311;28;20036;-69
2022/01/03 06:54:55;;;;;;;50.85;6.63;;;;;;;9.97;100.00;100943.06;5040252;28;20029;-70
2022/01/03 06:57:21;;;;;;;39.30;6.90;;;;;;;9.79;100.00;100930.78;5042935;28;20071;-68
2022/01/03 06:59:47;;;;;;;36.75;6.07;;;;;;;9.87;100.00;100943.91;5044008;28;20029;-69
2022/01/03 07:02:12;;;;;;;37.08;5.68;;;;;;;9.88;100.00;100935.41;5046369;28;20017;-69
2022/01/03 07:04:38;;;;;;;37.47;6.80;;;;;;;9.81;100.00;100929.41;5044474;28;20029;-69
2022/01/03 07:07:04;;;;;;;32.15;5.93;;;;;;;9.75;100.00;100936.78;5045821;28;20024;-69
2022/01/03 07:09:31;;;;;;;38.97;6.32;;;;;;;9.86;100.00;100921.19;5045821;28;20503;-70
2022/01/03 07:11:56;;;;;;;30.55;5.28;;;;;;;9.78;100.00;100934.63;5039357;28;20040;-69
2022/01/03 07:19:32;;;;;;;38.65;6.38;;;;;;;9.86;100.00;100929.41;5032111;28;20044;-70
2022/01/03 07:22:00;;;;;;;35.58;5.50;;;;;;;9.81;100.00;100934.88;5011868;28;20364;-70
2022/01/03 07:24:25;;;;;;;29.15;6.05;;;;;;;9.83;100.00;100932.69;5043615;28;20055;-70
2022/01/03 07:26:51;;;;;;;35.80;5.55;;;;;;;9.80;100.00;100933.22;5037834;28;20068;-70
2022/01/03 07:29:16;;;;;;;42.45;5.00;;;;;;;9.87;100.00;100939.28;5027178;28;20155;-69
2022/01/03 07:31:42;;;;;;;33.20;5.72;;;;;;;9.78;100.00;100951.88;5026449;28;20028;-68
2022/01/03 07:34:07;;;;;;;27.42;5.65;;;;;;;9.77;100.00;100949.41;5044773;28;20017;-69
2022/01/03 07:36:33;;;;;;;30.45;5.28;;;;;;;9.80;100.00;100946.91;5028325;28;20099;-69
2022/01/03 07:38:58;;;;;;;39.13;6.28;;;;;;;9.89;100.00;100947.22;5048886;28;20067;-69
2022/01/03 07:41:24;;;;;;;37.83;5.82;;;;;;;9.86;100.00;100959.53;5046163;28;20325;-69
2022/01/03 07:43:49;;;;;;;35.47;5.88;;;;;;;9.80;100.00;100960.63;5046984;28;20078;-69
2022/01/03 07:46:15;;;;;;;34.95;5.82;;;;;;;9.82;100.00;100963.09;5064312;28;20115;-69
2022/01/03 07:48:41;;;;;;;33.22;6.00;;;;;;;9.89;100.00;100948.03;5047813;28;20130;-69
2022/01/03 07:51:06;;;;;;;32.30;5.18;;;;;;;9.90;100.00;100951.56;5046907;28;20039;-69
2022/01/03 07:53:32;;;;;;;26.92;5.72;;;;;;;9.95;100.00;100959.78;5063537;28;20112;-68
2022/01/03 07:55:58;;;;;;;34.45;6.47;;;;;;;9.78;100.00;100973.75;5028171;28;20089;-69
2022/01/03 07:58:25;;;;;;;36.20;5.25;;;;;;;9.74;100.00;100969.94;5062909;28;20052;-70
2022/01/03 08:00:51;;;;;;;25.50;4.80;;;;;;;9.78;100.00;100962.81;5060289;28;20227;-69
2022/01/03 08:03:16;;;;;;;33.38;5.55;;;;;;;9.60;100.00;100963.34;5046973;28;20040;-68
2022/01/03 08:05:42;;;;;;;37.95;6.13;;;;;;;9.69;100.00;100961.69;5062876;28;20028;-69
2022/01/03 08:08:09;;;;;;;27.95;5.60;;;;;;;9.70;100.00;100957.88;5046851;28;20055;-70
2022/01/03 08:10:38;;;;;;;31.20;6.10;;;;;;;9.65;100.00;100966.09;5058448;28;20141;-70
2022/01/03 08:13:04;;;;;;;30.35;5.10;;;;;;;9.62;100.00;100950.22;5063895;28;20347;-69
2022/01/03 08:15:29;;;;;;;28.13;5.35;;;;;;;9.62;100.00;100952.94;5065128;28;20047;-69
2022/01/03 08:17:55;;;;;;;33.15;5.45;;;;;;;9.57;100.00;100949.13;5063252;28;20036;-69
2022/01/03 08:20:20;;;;;;;28.30;5.00;;;;;;;9.67;100.00;100955.69;5045285;28;20031;-69
2022/01/03 08:22:46;;;;;;;34.65;5.45;;;;;;;9.63;100.00;100954.59;5064635;28;20032;-69
2022/01/03 08:25:13;;;;;;;27.52;5.28;;;;;;;9.57;100.00;100959.25;5042980;28;20044;-69
2022/01/03 08:27:38;;;;;;;34.60;5.88;;;;;;;9.63;100.00;100966.38;5063633;28;20090;-70
2022/01/03 08:30:04;;;;;;;42.63;5.40;;;;;;;9.70;100.00;100971.56;5060676;28;20425;-69
2022/01/03 08:32:30;;;;;;;31.85;5.03;;;;;;;9.74;100.00;100962.53;5064211;28;20032;-70
2022/01/03 08:34:55;;;;;;;30.50;4.80;;;;;;;9.75;100.00;100979.78;5062952;28;20352;-69
2022/01/03 08:37:21;;;;;;;23.02;4.47;;;;;;;9.83;100.00;100979.25;5063386;28;20035;-70
2022/01/03 08:39:47;;;;;;;31.35;4.68;;;;;;;9.82;100.00;100991.31;5060603;28;20028;-70
2022/01/03 08:42:14;;;;;;;29.58;5.13;;;;;;;9.87;100.00;100963.91;5042786;28;20169;-69
2022/01/03 08:44:39;;;;;;;30.95;6.22;;;;;;;9.99;100.00;100969.09;5063002;28;20343;-70
2022/01/03 08:47:05;;;;;;;33.60;5.22;;;;;;;9.82;100.00;100980.34;5028134;28;20032;-69
2022/01/03 08:49:31;;;;;;;29.45;5.13;;;;;;;9.77;100.00;100977.59;5062984;28;20119;-69
2022/01/03 08:51:56;;;;;;;36.25;5.63;;;;;;;9.91;100.00;100969.66;5040407;28;20127;-69
2022/01/03 08:54:22;;;;;;;36.97;6.20;;;;;;;9.93;100.00;100971.00;5040713;28;20025;-70
2022/01/03 08:56:48;;;;;;;28.70;6.40;;;;;;;9.80;100.00;100979.78;5039663;28;20032;-70
2022/01/03 08:59:14;;;;;;;28.65;5.45;;;;;;;10.03;100.00;100978.41;5045700;28;20040;-70
2022/01/03 09:01:39;;;;;;;32.83;5.18;;;;;;;10.15;100.00;100972.66;5046052;28;20395;-70
2022/01/03 09:04:05;;;;;;;35.92;6.05;;;;;;;10.07;100.00;100959.53;5060863;28;20032;-71
2022/01/03 09:06:30;;;;;;;27.05;6.07;;;;;;;10.21;100.00;100966.06;5065400;28;20423;-69
2022/01/03 09:08:56;;;;;;;30.20;5.82;;;;;;;10.10;100.00;100961.69;5034440;28;20068;-68
2022/01/03 09:11:21;;;;;;;37.40;5.95;;;;;;;9.99;100.00;100946.38;5058715;28;20045;-68
2022/01/03 09:13:47;;;;;;;37.08;5.68;;;;;;;10.19;100.00;100956.47;5063782;28;20024;-70
2022/01/03 09:16:12;;;;;;;32.60;5.47;;;;;;;10.17;100.00;100953.22;5060783;28;20303;-69
2022/01/03 09:18:39;;;;;;;31.48;5.55;;;;;;;10.08;100.00;100953.78;5062595;28;20414;-69
2022/01/03 09:21:06;;;;;;;29.58;5.75;;;;;;;10.04;100.00;100952.66;5060794;28;20024;-69
2022/01/03 09:23:36;;;;;;;27.20;5.03;;;;;;;10.33;100.00;100956.75;5040534;28;20024;-68
2022/01/03 09:28:55;;;;;;;34.67;5.50;;;;;;;10.32;100.00;100944.97;5044159;28;20036;-69
2022/01/03 09:31:24;;;;;;;31.65;5.57;;;;;;;10.51;100.00;100930.66;5034641;28;20021;-70
2022/01/03 09:33:50;;;;;;;31.67;6.63;;;;;;;10.46;100.00;100947.94;5062117;28;20081;-68
2022/01/03 09:36:17;;;;;;;41.10;6.45;;;;;;;10.29;100.00;100951.78;5060599;28;20032;-69
2022/01/03 09:38:42;;;;;;;44.03;6.95;;;;;;;10.29;100.00;100935.34;5059201;28;20031;-69
2022/01/03 09:41:10;;;;;;;36.13;6.15;;;;;;;10.53;100.00;100945.75;5057743;28;20439;-69
2022/01/03 09:44:11;;;;;;;39.67;6.70;;;;;;;10.42;100.00;100938.66;5063664;28;20502;-69
2022/01/03 09:46:39;;;;;;;35.20;5.88;;;;;;;10.61;100.00;100936.94;5042717;28;20024;-69
2022/01/03 09:49:11;;;;;;;39.45;5.82;;;;;;;10.45;100.00;100935.34;5058558;28;20086;-69
2022/01/03 09:51:38;;;;;;;39.33;5.80;;;;;;;10.48;100.00;100938.34;5063524;28;20093;-69
2022/01/03 09:54:07;;;;;;;36.65;6.05;;;;;;;10.53;100.00;100945.75;5056967;28;20043;-68
2022/01/03 09:56:35;;;;;;;32.65;5.78;;;;;;;10.71;100.00;100941.56;5058671;28;20283;-69
2022/01/03 09:59:02;;;;;;;34.33;6.30;;;;;;;10.81;100.00;100936.03;5043719;28;20062;-69
2022/01/03 10:01:29;;;;;;;36.53;6.65;;;;;;;10.76;100.00;100930.56;5045206;28;20040;-69
2022/01/03 10:03:55;;;;;;;35.67;5.88;;;;;;;10.80;100.00;100934.38;5062875;28;20518;-68
2022/01/03 10:06:21;;;;;;;38.60;6.63;;;;;;;10.76;100.00;100933.31;5044325;28;20028;-68
2022/01/03 10:08:47;;;;;;;34.65;5.75;;;;;;;10.95;100.00;100935.41;5060841;28;20029;-69
2022/01/03 10:11:14;;;;;;;35.75;6.80;;;;;;;10.89;100.00;100933.78;5056938;28;20425;-69
2022/01/03 10:13:40;;;;;;;34.08;6.07;;;;;;;10.86;100.00;100929.69;5063971;28;20029;-69
2022/01/03 10:16:06;;;;;;;30.00;5.95;;;;;;;10.95;100.00;100941.75;5061390;28;20074;-68
2022/01/03 10:18:33;;;;;;;35.58;6.30;;;;;;;11.08;100.00;100942.19;5062830;28;20034;-68
2022/01/03 10:21:00;;;;;;;41.15;6.75;;;;;;;10.90;100.00;100947.22;5060911;28;20051;-69
2022/01/03 10:23:28;;;;;;;36.60;6.63;;;;;;;11.18;100.00;100928.41;5060451;28;20086;-68
2022/01/03 10:26:14;;;;;;;45.03;6.68;;;;;;;11.17;100.00;100929.53;5040669;28;20041;-68
2022/01/03 10:28:39;;;;;;;46.63;6.53;;;;;;;11.16;100.00;100916.91;5063521;28;20023;-68
2022/01/03 10:31:20;;;;;;;39.55;6.80;;;;;;;11.16;100.00;100923.22;5058507;28;20437;-68
2022/01/03 10:33:47;;;;;;;32.42;6.25;;;;;;;11.21;100.00;100922.38;5060962;28;20490;-69
2022/01/03 10:36:31;;;;;;;39.20;6.85;;;;;;;11.09;100.00;100917.22;5063290;28;20111;-68
2022/01/03 10:39:00;;;;;;;34.35;6.10;;;;;;;11.09;100.00;100909.00;5060438;28;20107;-68
2022/01/03 10:41:26;;;;;;;37.50;6.80;;;;;;;11.01;100.00;100906.84;5042686;28;20403;-69
2022/01/03 10:43:55;;;;;;;33.42;5.85;;;;;;;11.06;100.00;100908.75;5061922;28;20248;-68
2022/01/03 10:46:26;;;;;;;40.40;6.40;;;;;;;11.49;100.00;100909.81;5058632;28;20242;-67
2022/01/03 10:48:55;;;;;;;36.90;6.38;;;;;;;11.30;100.00;100915.19;5061483;28;20024;-67
2022/01/03 10:51:24;;;;;;;32.15;6.07;;;;;;;11.51;100.00;100893.88;5058012;28;20052;-68
2022/01/03 10:53:51;;;;;;;38.47;6.72;;;;;;;11.38;100.00;100900.84;5060641;28;20373;-69
2022/01/03 10:56:44;;;;;;;31.13;6.50;;;;;;;11.16;100.00;100900.44;5057458;28;20616;-68
2022/01/03 10:59:15;;;;;;;35.30;7.70;;;;;;;11.04;100.00;100895.31;5061022;28;20028;-68
2022/01/03 11:01:49;;;;;;;33.35;5.13;;;;;;;11.19;100.00;100899.88;5063604;28;20085;-67
2022/01/03 11:04:28;;;;;;;33.85;6.20;;;;;;;11.27;100.00;100887.50;5060317;28;20029;-68
2022/01/03 11:13:11;;;;;;;46.97;6.95;;;;;;;11.25;100.00;100890.50;5044618;28;20040;-69
2022/01/03 11:15:38;;;;;;;34.30;5.35;;;;;;;11.46;100.00;100879.38;5043496;28;20102;-68
2022/01/03 11:18:44;;;;;;;38.28;6.22;;;;;;;11.37;100.00;100890.16;5025086;28;20029;-68
2022/01/03 11:21:21;;;;;;;38.25;7.18;;;;;;;11.19;100.00;100886.16;5037578;28;20088;-68
2022/01/03 11:24:09;;;;;;;33.50;6.50;;;;;;;11.29;100.00;100877.03;5052570;28;20039;-68
2022/01/03 11:26:40;;;;;;;39.10;6.95;;;;;;;11.54;100.00;100881.50;5056958;28;20020;-68
2022/01/03 11:29:06;;;;;;;39.78;7.00;;;;;;;11.26;100.00;100881.16;5062300;28;20051;-67
2022/01/03 11:31:33;;;;;;;38.97;7.43;;;;;;;11.54;100.00;100874.09;5047324;28;20036;-68
2022/01/03 11:34:00;;;;;;;48.28;8.05;;;;;;;11.48;100.00;100868.91;5064328;28;20103;-68
2022/01/03 11:36:27;;;;;;;40.58;7.97;;;;;;;11.47;100.00;100861.78;5063034;28;20037;-67